Time;durP1;ratioP1;P1;durP2;ratioP2;P2;SDS_P1;SDS_P2;PMS_P1;PMS_P2;Temp;Humidity;BMP_temperature;BMP_pressure;BME280_temperature;BME280_humidity;BME280_pressure;Samples;Min_cycle;Max_cycle;Signal;HPM_P1;HPM_P2
2022/05/22 00:00:45;;;;;;;2.70;1.60;;;;;;;15.03;59.54;98697.00;4484472;32;20587;-71
2022/05/22 00:03:12;;;;;;;2.40;1.55;;;;;;;14.97;59.78;98695.00;4484819;31;20088;-71
2022/05/22 00:05:39;;;;;;;3.25;1.60;;;;;;;14.97;59.79;98694.19;4484799;32;20106;-71
2022/05/22 00:08:07;;;;;;;1.83;1.60;;;;;;;14.94;59.63;98690.06;4484702;31;20096;-71
2022/05/22 00:10:35;;;;;;;1.95;1.30;;;;;;;14.89;59.93;98692.38;4484721;32;20483;-70
2022/05/22 00:13:02;;;;;;;2.55;1.87;;;;;;;14.88;59.89;98688.09;4484979;31;20106;-71
2022/05/22 00:15:29;;;;;;;3.17;2.17;;;;;;;14.85;60.03;98684.00;4484578;31;20123;-70
2022/05/22 00:17:57;;;;;;;5.35;1.50;;;;;;;14.79;60.26;98683.81;4484664;31;20100;-71
2022/05/22 00:20:24;;;;;;;2.15;1.73;;;;;;;14.77;60.32;98683.97;4484521;32;20111;-71
2022/05/22 00:22:51;;;;;;;5.07;1.62;;;;;;;14.75;60.46;98685.13;4484558;31;20534;-71
2022/05/22 00:25:18;;;;;;;1.85;1.60;;;;;;;14.68;60.59;98682.34;4484599;32;20938;-71
2022/05/22 00:27:45;;;;;;;3.78;1.33;;;;;;;14.66;60.67;98685.16;4484273;32;20476;-71
2022/05/22 00:30:13;;;;;;;2.10;1.60;;;;;;;14.64;60.56;98684.50;4484518;31;20610;-71
2022/05/22 00:32:45;;;;;;;2.47;1.55;;;;;;;14.64;60.49;98673.94;4484096;32;20096;-71
2022/05/22 00:35:13;;;;;;;3.12;1.65;;;;;;;14.61;60.55;98681.34;4484333;31;20117;-71
2022/05/22 00:37:40;;;;;;;3.70;1.80;;;;;;;14.58;60.69;98677.22;4484253;31;20398;-71
2022/05/22 00:40:08;;;;;;;1.90;1.65;;;;;;;14.55;60.80;98675.72;4484315;31;20480;-71
2022/05/22 00:42:35;;;;;;;2.67;1.40;;;;;;;14.57;60.80;98678.19;4484103;31;20118;-71
2022/05/22 00:45:05;;;;;;;1.62;1.50;;;;;;;14.49;61.15;98686.12;4484266;31;20100;-71
2022/05/22 00:47:32;;;;;;;2.97;1.77;;;;;;;14.41;61.41;98683.47;4484390;31;20092;-71
2022/05/22 00:50:02;;;;;;;4.57;1.30;;;;;;;14.36;61.20;98676.84;4485993;31;20123;-71
2022/05/22 00:52:40;;;;;;;1.58;1.40;;;;;;;14.38;60.94;98682.81;4484846;32;20084;-71
2022/05/22 00:55:15;;;;;;;3.37;1.50;;;;;;;14.35;61.05;98672.59;4484863;32;20106;-71
2022/05/22 00:57:49;;;;;;;2.58;1.48;;;;;;;14.34;61.12;98681.47;4485787;31;20377;-71
2022/05/22 01:00:20;;;;;;;2.03;1.30;;;;;;;14.34;61.18;98684.13;4484808;32;20655;-71
2022/05/22 01:05:38;;;;;;;1.83;1.42;;;;;;;14.31;61.06;98667.81;4486067;32;20143;-71
2022/05/22 01:08:06;;;;;;;2.92;1.40;;;;;;;14.32;60.62;98670.28;4486468;32;20603;-71
2022/05/22 01:10:37;;;;;;;1.85;1.37;;;;;;;14.36;60.21;98666.31;4486306;31;20160;-71
2022/05/22 01:13:05;;;;;;;1.50;1.17;;;;;;;14.37;59.87;98657.44;4485031;32;20152;-71
2022/05/22 01:15:32;;;;;;;2.78;1.80;;;;;;;14.40;59.51;98671.25;4485044;32;20088;-71
2022/05/22 01:18:00;;;;;;;1.60;1.40;;;;;;;14.37;59.54;98660.06;4486255;31;20156;-71
2022/05/22 01:20:27;;;;;;;7.47;1.80;;;;;;;14.37;59.61;98672.44;4486016;31;20530;-71
2022/05/22 01:22:54;;;;;;;3.85;1.67;;;;;;;14.35;60.03;98664.69;4485845;31;20089;-71
2022/05/22 01:25:21;;;;;;;2.22;1.40;;;;;;;14.30;60.36;98671.44;4486188;31;20096;-71
2022/05/22 01:27:49;;;;;;;3.22;1.42;;;;;;;14.23;60.66;98663.38;4485870;31;20172;-71
2022/05/22 01:30:24;;;;;;;2.17;1.30;;;;;;;14.19;60.61;98664.66;4484735;32;20160;-71
2022/05/22 01:32:51;;;;;;;2.12;1.40;;;;;;;14.21;60.27;98665.31;4485981;31;20446;-71
2022/05/22 01:35:22;;;;;;;5.07;2.12;;;;;;;14.26;59.85;98659.56;4485970;31;20096;-70
2022/05/22 01:37:50;;;;;;;3.97;1.48;;;;;;;14.26;59.64;98662.19;4484648;32;20153;-71
2022/05/22 01:40:18;;;;;;;1.45;1.33;;;;;;;14.25;59.28;98664.03;4486224;31;20088;-71
2022/05/22 01:42:48;;;;;;;1.60;1.30;;;;;;;14.27;59.31;98662.03;4485932;32;20127;-71
2022/05/22 01:45:23;;;;;;;3.92;1.30;;;;;;;14.28;59.59;98666.31;4485978;31;20096;-71
2022/05/22 01:47:51;;;;;;;2.67;1.48;;;;;;;14.26;59.74;98663.03;4485886;31;20096;-71
2022/05/22 01:50:21;;;;;;;2.05;1.50;;;;;;;14.31;59.32;98666.00;4486077;31;20459;-71
2022/05/22 01:52:48;;;;;;;2.35;1.33;;;;;;;14.29;59.42;98667.13;4485833;31;20530;-71
2022/05/22 01:55:16;;;;;;;1.58;1.42;;;;;;;14.31;59.86;98668.63;4486049;31;20092;-71
2022/05/22 01:57:44;;;;;;;2.30;1.52;;;;;;;14.31;60.27;98679.19;4484379;32;20506;-71
2022/05/22 02:00:14;;;;;;;3.47;1.35;;;;;;;14.32;60.40;98661.53;4485224;32;20119;-71
2022/05/22 02:02:42;;;;;;;2.08;1.60;;;;;;;14.25;60.86;98660.56;4485525;32;20788;-71
2022/05/22 02:05:10;;;;;;;3.08;1.60;;;;;;;14.24;61.15;98665.00;4485825;31;20167;-71
2022/05/22 02:10:38;;;;;;;3.30;1.77;;;;;;;14.17;61.79;98658.72;4452046;32;20250;-71
2022/05/22 02:13:07;;;;;;;2.42;1.42;;;;;;;14.08;62.60;98662.34;4451905;32;20093;-71
2022/05/22 02:15:35;;;;;;;2.35;1.33;;;;;;;14.00;63.20;98656.09;4452036;32;20642;-71
2022/05/22 02:18:03;;;;;;;2.28;1.70;;;;;;;13.94;63.66;98658.53;4451929;32;20159;-71
2022/05/22 02:20:30;;;;;;;1.70;1.50;;;;;;;13.89;64.11;98656.38;4451849;32;20100;-71
2022/05/22 02:22:57;;;;;;;1.90;1.70;;;;;;;13.84;64.52;98664.75;4452086;32;20172;-71
2022/05/22 02:25:34;;;;;;;3.03;1.52;;;;;;;13.77;64.98;98662.94;4452106;32;20172;-71
2022/05/22 02:28:04;;;;;;;2.45;1.58;;;;;;;13.69;65.54;98665.53;4451650;32;20478;-71
2022/05/22 02:30:35;;;;;;;6.45;1.40;;;;;;;13.57;66.13;98662.38;4452151;32;20106;-71
2022/05/22 02:33:03;;;;;;;3.65;1.75;;;;;;;13.48;66.62;98672.03;4451593;32;20256;-71
2022/05/22 02:35:33;;;;;;;3.65;1.37;;;;;;;13.41;67.03;98663.94;4452151;32;20160;-71
2022/05/22 02:38:01;;;;;;;3.00;1.92;;;;;;;13.37;67.23;98659.16;4451827;32;20630;-71
2022/05/22 02:40:31;;;;;;;2.72;1.95;;;;;;;13.37;66.67;98657.38;4452033;32;20181;-71
2022/05/22 02:42:59;;;;;;;2.20;1.62;;;;;;;13.46;66.05;98664.31;4451764;32;20092;-71
2022/05/22 02:45:29;;;;;;;2.70;1.80;;;;;;;13.45;66.30;98664.47;4456686;32;20105;-71
2022/05/22 02:47:59;;;;;;;2.60;1.80;;;;;;;13.41;66.51;98665.75;4485818;31;20525;-71
2022/05/22 02:50:29;;;;;;;2.58;1.50;;;;;;;13.36;66.76;98662.78;4485287;31;20122;-71
2022/05/22 02:52:59;;;;;;;1.80;1.50;;;;;;;13.37;66.71;98669.69;4485127;32;20104;-70
2022/05/22 02:55:27;;;;;;;3.10;1.50;;;;;;;13.39;66.60;98668.53;4485697;31;20160;-71
2022/05/22 02:57:54;;;;;;;2.65;1.85;;;;;;;13.35;66.34;98671.66;4484918;31;20104;-71
2022/05/22 03:00:25;;;;;;;3.25;1.77;;;;;;;13.35;65.83;98671.66;4485360;31;20482;-71
2022/05/22 03:02:52;;;;;;;2.42;1.60;;;;;;;13.32;65.82;98673.59;4485406;31;20442;-70
2022/05/22 03:05:20;;;;;;;3.33;1.73;;;;;;;13.32;65.38;98675.37;4484052;32;20114;-70
2022/05/22 03:07:48;;;;;;;1.75;1.30;;;;;;;13.32;64.80;98665.72;4485345;31;20118;-71
2022/05/22 03:10:18;;;;;;;3.00;1.45;;;;;;;13.33;64.76;98666.53;4485496;31;20088;-70
2022/05/22 03:12:45;;;;;;;2.20;1.60;;;;;;;13.34;64.17;98659.47;4485041;31;20118;-70
2022/05/22 03:15:16;;;;;;;3.40;1.50;;;;;;;13.39;64.28;98662.47;4485354;31;20103;-71
2022/05/22 03:17:43;;;;;;;3.40;1.05;;;;;;;13.39;63.35;98662.47;4485207;31;20429;-71
2022/05/22 03:20:11;;;;;;;3.17;1.30;;;;;;;13.45;62.94;98667.91;4485492;31;20462;-71
2022/05/22 03:22:39;;;;;;;1.40;1.00;;;;;;;13.53;62.29;98661.03;4485278;32;20092;-71
2022/05/22 03:25:07;;;;;;;3.97;1.40;;;;;;;13.68;61.08;98661.25;4485467;31;20092;-71
2022/05/22 03:27:35;;;;;;;4.35;1.60;;;;;;;13.80;60.94;98665.25;4483560;32;20208;-71
2022/05/22 03:30:04;;;;;;;1.75;1.20;;;;;;;13.88;60.56;98657.34;4485512;31;20147;-70
2022/05/22 03:32:32;;;;;;;2.85;1.65;;;;;;;13.99;60.38;98661.53;4469649;32;20110;-71
2022/05/22 03:35:00;;;;;;;2.40;1.58;;;;;;;13.97;60.70;98656.41;4469243;32;20100;-71
2022/05/22 03:37:27;;;;;;;1.92;1.37;;;;;;;13.95;60.65;98663.62;4469847;32;20110;-70
2022/05/22 03:39:56;;;;;;;3.20;1.48;;;;;;;13.95;60.87;98674.16;4469262;32;20145;-71
2022/05/22 03:42:27;;;;;;;8.40;1.60;;;;;;;13.88;61.42;98670.53;4469696;32;20161;-70
2022/05/22 03:44:54;;;;;;;2.05;1.50;;;;;;;13.81;61.75;98680.06;4469337;32;20141;-71
2022/05/22 03:47:21;;;;;;;2.85;1.92;;;;;;;13.79;62.22;98674.13;4469437;32;20104;-71
2022/05/22 03:49:49;;;;;;;2.08;1.40;;;;;;;13.68;62.60;98677.88;4469343;32;20097;-71
2022/05/22 03:52:17;;;;;;;3.87;1.62;;;;;;;13.63;63.20;98680.16;4469407;32;20467;-71
2022/05/22 03:54:44;;;;;;;2.30;1.42;;;;;;;13.67;63.25;98681.47;4468936;32;20848;-71
2022/05/22 03:57:11;;;;;;;2.65;1.30;;;;;;;13.55;63.83;98683.59;4469222;32;20172;-70
2022/05/22 03:59:41;;;;;;;3.55;1.40;;;;;;;13.56;64.05;98689.69;4469319;32;20093;-71
2022/05/22 04:02:09;;;;;;;1.45;1.27;;;;;;;13.53;63.98;98698.69;4469380;32;20152;-71
2022/05/22 04:04:36;;;;;;;2.30;1.60;;;;;;;13.50;64.14;98696.38;4469233;32;20496;-71
2022/05/22 04:07:04;;;;;;;2.80;1.42;;;;;;;13.56;64.17;98697.56;4469323;32;20264;-71
2022/05/22 04:09:31;;;;;;;3.15;2.35;;;;;;;13.59;63.65;98692.81;4469030;32;20142;-71
2022/05/22 04:11:59;;;;;;;2.47;1.50;;;;;;;13.61;63.82;98693.50;4469338;32;20160;-71
2022/05/22 04:14:27;;;;;;;2.58;1.30;;;;;;;13.62;63.63;98695.13;4468731;32;20118;-71
2022/05/22 04:16:54;;;;;;;4.72;1.40;;;;;;;13.69;63.83;98699.75;4469260;32;20136;-71
2022/05/22 04:19:21;;;;;;;1.58;1.30;;;;;;;13.69;63.80;98699.75;4468544;32;20123;-71
2022/05/22 04:21:48;;;;;;;4.28;1.60;;;;;;;13.69;63.73;98702.38;4469180;32;20157;-71
2022/05/22 04:27:04;;;;;;;9.27;1.80;;;;;;;13.85;63.64;98705.06;4468726;32;20088;-71
2022/05/22 04:29:33;;;;;;;2.97;1.33;;;;;;;13.83;64.19;98717.59;4468913;32;20100;-71
2022/05/22 04:32:01;;;;;;;2.00;1.45;;;;;;;13.83;63.79;98710.50;4481261;32;20088;-71
2022/05/22 04:34:29;;;;;;;2.50;1.60;;;;;;;13.93;63.83;98713.03;4484302;31;20088;-71
2022/05/22 04:36:59;;;;;;;3.35;1.27;;;;;;;14.01;63.52;98706.94;4484594;31;20096;-71
2022/05/22 04:39:27;;;;;;;6.15;1.75;;;;;;;13.91;63.48;98707.06;4484367;31;20150;-71
2022/05/22 04:41:54;;;;;;;4.47;1.65;;;;;;;13.90;63.49;98708.06;4484614;31;20121;-71
2022/05/22 04:44:22;;;;;;;3.80;1.42;;;;;;;13.89;63.56;98709.06;4484448;31;20084;-71
2022/05/22 04:46:52;;;;;;;2.85;1.65;;;;;;;13.87;64.10;98710.19;4484549;31;20119;-71
2022/05/22 04:49:20;;;;;;;2.80;1.50;;;;;;;13.89;64.39;98714.31;4484411;31;20161;-71
2022/05/22 04:51:47;;;;;;;2.25;1.48;;;;;;;13.99;64.35;98707.09;4484157;31;20104;-71
2022/05/22 04:54:15;;;;;;;2.85;1.58;;;;;;;14.02;64.22;98711.25;4484179;31;20449;-71
2022/05/22 04:56:42;;;;;;;1.52;1.30;;;;;;;14.01;64.48;98704.31;4484140;31;20100;-71
2022/05/22 04:59:10;;;;;;;2.62;1.40;;;;;;;13.99;64.18;98712.37;4484275;31;20168;-71
2022/05/22 05:01:37;;;;;;;2.78;1.58;;;;;;;14.00;64.46;98711.41;4483910;31;20115;-71
2022/05/22 05:04:05;;;;;;;2.95;1.20;;;;;;;14.06;64.25;98704.66;4484019;31;20541;-71
2022/05/22 05:06:37;;;;;;;3.05;1.55;;;;;;;13.92;64.72;98703.47;4484048;31;20472;-71
2022/05/22 05:09:10;;;;;;;3.47;1.62;;;;;;;14.10;64.97;98702.53;4484259;31;20112;-71
2022/05/22 05:11:37;;;;;;;3.08;1.70;;;;;;;14.06;64.52;98693.28;4484122;31;20477;-71
2022/05/22 05:14:06;;;;;;;2.92;1.65;;;;;;;14.16;64.21;98697.44;4482587;32;20115;-71
2022/05/22 05:16:33;;;;;;;3.28;1.42;;;;;;;14.27;63.90;98695.47;4484068;31;20085;-71
2022/05/22 05:19:01;;;;;;;1.67;1.40;;;;;;;14.43;64.22;98702.56;4484191;31;20096;-71
2022/05/22 05:21:29;;;;;;;3.33;1.77;;;;;;;14.37;63.83;98699.59;4483554;31;20156;-71
2022/05/22 05:23:57;;;;;;;2.47;1.52;;;;;;;14.34;62.92;98699.94;4484072;32;20480;-71
2022/05/22 05:26:25;;;;;;;2.75;1.80;;;;;;;14.40;63.52;98701.09;4483668;31;20130;-71
2022/05/22 05:28:53;;;;;;;4.18;1.62;;;;;;;14.56;63.23;98702.91;4483906;31;20149;-71
2022/05/22 05:31:23;;;;;;;2.50;1.83;;;;;;;14.59;62.43;98694.66;4483508;31;20476;-71
2022/05/22 05:33:50;;;;;;;3.65;2.47;;;;;;;14.72;62.60;98702.94;4483860;31;20457;-71
2022/05/22 05:36:17;;;;;;;2.67;1.70;;;;;;;14.80;61.94;98703.94;4484951;32;20165;-71
2022/05/22 05:38:46;;;;;;;5.55;2.08;;;;;;;14.82;62.43;98707.22;4486367;32;20171;-71
2022/05/22 05:41:26;;;;;;;2.97;1.98;;;;;;;14.88;62.16;98701.28;4486108;32;20085;-71
2022/05/22 05:43:54;;;;;;;2.20;1.55;;;;;;;15.09;61.74;98708.66;4486202;32;20468;-71
2022/05/22 05:46:21;;;;;;;3.85;1.75;;;;;;;15.18;61.67;98717.41;4485886;32;20104;-71
2022/05/22 05:48:48;;;;;;;3.00;1.62;;;;;;;15.12;61.39;98710.16;4486171;31;20156;-71
2022/05/22 05:51:15;;;;;;;2.65;1.95;;;;;;;15.29;61.46;98718.84;4485550;32;20116;-71
2022/05/22 05:53:43;;;;;;;4.60;1.77;;;;;;;15.39;59.43;98715.03;4486054;32;20143;-71
2022/05/22 05:56:13;;;;;;;4.07;1.87;;;;;;;15.44;60.96;98719.81;4485528;31;20124;-71
2022/05/22 05:58:52;;;;;;;5.00;1.90;;;;;;;15.48;60.09;98720.31;4485857;31;20084;-71
2022/05/22 06:01:22;;;;;;;5.37;1.42;;;;;;;15.62;59.64;98722.22;4485723;31;20081;-71
2022/05/22 06:03:50;;;;;;;6.57;2.10;;;;;;;15.56;59.09;98728.19;4485947;31;20093;-71
2022/05/22 06:06:18;;;;;;;4.55;1.70;;;;;;;15.49;59.47;98717.50;4485578;32;20092;-71
2022/05/22 06:08:46;;;;;;;2.62;1.80;;;;;;;15.57;59.13;98714.00;4485802;31;20118;-71
2022/05/22 06:11:16;;;;;;;3.78;2.15;;;;;;;15.75;58.99;98705.84;4485806;31;20179;-71
2022/05/22 06:13:43;;;;;;;3.67;1.80;;;;;;;15.91;59.46;98712.87;4485542;32;20092;-71
2022/05/22 06:16:11;;;;;;;4.90;1.50;;;;;;;15.83;58.58;98705.00;4485580;32;20096;-71
2022/05/22 06:18:40;;;;;;;2.83;2.10;;;;;;;15.89;58.19;98701.69;4485612;31;20092;-71
2022/05/22 06:21:17;;;;;;;2.17;1.60;;;;;;;15.89;59.04;98704.31;4485517;32;20973;-71
2022/05/22 06:23:45;;;;;;;2.05;1.85;;;;;;;15.81;58.93;98713.13;4485729;31;20092;-71
2022/05/22 06:26:19;;;;;;;3.10;1.75;;;;;;;15.60;58.28;98713.66;4485726;31;20080;-71
2022/05/22 06:28:48;;;;;;;4.25;1.83;;;;;;;15.77;59.14;98712.63;4485379;31;20159;-71
2022/05/22 06:31:15;;;;;;;2.30;1.40;;;;;;;15.74;58.54;98712.13;4485409;31;20142;-71
2022/05/22 06:33:43;;;;;;;2.45;1.75;;;;;;;15.86;58.27;98709.94;4485497;31;20097;-71
2022/05/22 06:36:14;;;;;;;5.43;2.28;;;;;;;16.34;58.23;98701.94;4485433;31;20080;-71
2022/05/22 06:41:28;;;;;;;2.08;1.40;;;;;;;16.53;54.63;98706.72;4485473;31;20096;-71
2022/05/22 06:43:57;;;;;;;2.58;1.73;;;;;;;16.45;54.71;98710.25;4485689;31;20119;-71
2022/05/22 06:46:33;;;;;;;4.43;1.83;;;;;;;16.63;55.15;98712.59;4485073;31;20566;-71
2022/05/22 06:49:03;;;;;;;1.77;1.60;;;;;;;16.89;54.40;98713.25;4485836;31;20949;-71
2022/05/22 06:51:31;;;;;;;2.42;1.67;;;;;;;16.92;54.80;98716.34;4485514;31;20088;-71
2022/05/22 06:53:58;;;;;;;3.53;1.70;;;;;;;17.05;54.12;98720.19;4485560;31;20107;-71
2022/05/22 06:56:27;;;;;;;2.55;1.40;;;;;;;17.30;53.89;98704.91;4485433;31;20124;-71
2022/05/22 06:58:55;;;;;;;5.03;1.67;;;;;;;17.54;54.74;98712.56;4485367;31;20088;-71
2022/05/22 07:01:22;;;;;;;2.20;1.83;;;;;;;17.38;54.86;98705.66;4485324;31;20405;-71
2022/05/22 07:03:50;;;;;;;3.80;1.80;;;;;;;17.64;54.53;98696.41;4485554;31;20085;-71
2022/05/22 07:06:18;;;;;;;3.70;1.55;;;;;;;17.66;53.40;98690.91;4485494;31;20108;-71
2022/05/22 07:08:45;;;;;;;2.20;1.40;;;;;;;17.89;53.14;98694.28;4485556;31;20491;-71
2022/05/22 07:14:00;;;;;;;7.37;1.98;;;;;;;17.88;51.35;98684.69;4485248;31;20103;-71
2022/05/22 07:16:28;;;;;;;2.20;1.50;;;;;;;17.95;51.78;98684.75;4485418;31;20123;-71
2022/05/22 07:18:56;;;;;;;3.87;1.75;;;;;;;18.26;50.80;98687.16;4485316;32;20103;-71
2022/05/22 07:21:27;;;;;;;4.97;1.60;;;;;;;18.18;51.41;98697.03;4485305;31;20084;-71
2022/05/22 07:23:54;;;;;;;2.80;1.42;;;;;;;18.15;50.63;98690.28;4485154;32;20132;-71
2022/05/22 07:26:24;;;;;;;2.45;1.45;;;;;;;18.44;50.41;98684.06;4485003;31;20127;-71
2022/05/22 07:28:53;;;;;;;1.80;1.40;;;;;;;18.53;49.12;98675.94;4485011;31;20088;-71
2022/05/22 07:31:23;;;;;;;5.82;1.52;;;;;;;18.88;49.00;98682.22;4485170;31;20122;-71
2022/05/22 07:33:51;;;;;;;4.32;1.40;;;;;;;18.70;49.10;98676.50;4485222;31;20506;-71
2022/05/22 07:36:19;;;;;;;4.57;1.37;;;;;;;18.59;48.38;98677.84;4485190;31;20111;-71
2022/05/22 07:38:48;;;;;;;3.37;1.48;;;;;;;18.55;49.38;98679.25;4485298;31;20134;-71
2022/05/22 07:41:16;;;;;;;4.70;1.50;;;;;;;18.59;49.13;98691.94;4485297;31;20115;-71
2022/05/22 07:43:44;;;;;;;4.70;1.70;;;;;;;18.88;48.14;98674.25;4485165;31;20092;-71
2022/05/22 07:46:13;;;;;;;2.50;1.40;;;;;;;18.93;47.45;98677.13;4484997;32;20198;-71
2022/05/22 07:48:42;;;;;;;2.78;1.45;;;;;;;18.95;47.16;98661.00;4485074;31;20114;-71
2022/05/22 07:51:12;;;;;;;4.00;1.50;;;;;;;19.06;46.53;98660.47;4485049;32;20144;-71
2022/05/22 07:53:39;;;;;;;8.07;1.42;;;;;;;19.13;47.28;98676.44;4484799;31;20092;-71
2022/05/22 07:56:08;;;;;;;1.92;1.17;;;;;;;18.96;47.21;98663.47;4484793;31;20088;-71
2022/05/22 07:58:35;;;;;;;3.42;1.30;;;;;;;18.68;46.84;98668.72;4483707;31;21049;-71
2022/05/22 08:01:03;;;;;;;3.47;1.62;;;;;;;18.60;45.87;98667.03;4484839;31;20119;-71
2022/05/22 08:03:32;;;;;;;3.17;1.40;;;;;;;18.51;47.39;98664.72;4484993;31;20081;-71
2022/05/22 08:06:00;;;;;;;6.07;1.30;;;;;;;18.83;46.99;98668.66;4484756;32;20092;-71
2022/05/22 08:08:28;;;;;;;1.37;1.02;;;;;;;19.24;46.47;98667.94;4484868;31;20095;-71
2022/05/22 08:11:08;;;;;;;4.30;1.35;;;;;;;19.20;44.80;98671.16;4485085;31;20529;-71
2022/05/22 08:13:36;;;;;;;3.25;1.10;;;;;;;19.23;44.94;98665.47;4484847;32;20093;-71
2022/05/22 08:16:04;;;;;;;5.53;1.08;;;;;;;18.96;44.51;98652.84;4484913;32;20478;-71
2022/05/22 08:18:32;;;;;;;3.67;1.30;;;;;;;18.99;45.00;98650.84;4484745;32;20096;-71
2022/05/22 08:21:01;;;;;;;5.20;1.30;;;;;;;18.97;44.59;98659.00;4484730;32;20096;-71
2022/05/22 08:23:29;;;;;;;5.50;1.33;;;;;;;19.06;45.19;98655.16;4484519;31;20386;-71
2022/05/22 08:25:58;;;;;;;3.92;1.42;;;;;;;19.17;44.97;98655.62;4484645;31;20096;-71
2022/05/22 08:28:25;;;;;;;3.12;1.20;;;;;;;19.27;44.33;98651.63;4484319;31;20132;-71
2022/05/22 08:30:52;;;;;;;5.25;1.58;;;;;;;19.37;44.67;98650.44;4484617;32;20104;-71
2022/05/22 08:33:20;;;;;;;2.37;1.30;;;;;;;19.36;44.10;98646.13;4484252;31;20145;-71
2022/05/22 08:35:47;;;;;;;3.33;1.20;;;;;;;19.50;44.84;98645.19;4484372;31;20767;-71
2022/05/22 08:38:14;;;;;;;2.55;1.15;;;;;;;19.23;44.48;98639.75;4484233;31;20118;-71
2022/05/22 08:40:45;;;;;;;1.50;1.20;;;;;;;19.26;44.23;98638.53;4484354;32;20096;-71
2022/05/22 08:43:37;;;;;;;2.90;1.60;;;;;;;19.05;44.96;98636.78;4484129;31;20486;-71
2022/05/22 08:46:16;;;;;;;6.28;1.48;;;;;;;19.34;46.29;98641.00;4484260;31;20143;-71
2022/05/22 08:48:52;;;;;;;1.62;1.37;;;;;;;19.62;46.38;98627.66;4484491;32;20130;-71
2022/05/22 08:51:38;;;;;;;2.37;1.17;;;;;;;19.46;44.67;98635.97;4482866;32;20175;-71
2022/05/22 08:54:24;;;;;;;2.83;1.42;;;;;;;19.58;44.21;98626.41;4482925;32;20072;-71
2022/05/22 08:59:41;;;;;;;3.08;1.33;;;;;;;19.63;44.35;98625.81;4483099;32;20441;-71
2022/05/22 09:02:32;;;;;;;3.78;1.40;;;;;;;19.55;44.19;98631.31;4483904;31;20112;-71
2022/05/22 09:05:08;;;;;;;2.17;1.20;;;;;;;19.69;45.52;98635.63;4483829;31;20102;-71
2022/05/22 09:07:55;;;;;;;2.62;1.33;;;;;;;19.54;43.91;98638.44;4484086;32;20568;-71
2022/05/22 09:10:28;;;;;;;3.08;1.50;;;;;;;19.70;44.00;98610.72;4483788;32;20100;-71
2022/05/22 09:13:20;;;;;;;2.90;1.20;;;;;;;20.01;43.35;98620.00;4484895;32;20450;-71
2022/05/22 09:16:02;;;;;;;4.55;1.23;;;;;;;20.21;42.38;98598.75;4486334;31;20153;-71
2022/05/22 09:18:34;;;;;;;1.67;1.10;;;;;;;20.26;42.45;98598.97;4486127;31;20355;-71
2022/05/22 09:21:04;;;;;;;5.28;1.10;;;;;;;20.55;41.61;98599.59;4486093;31;20096;-71
2022/05/22 09:23:50;;;;;;;1.42;0.88;;;;;;;20.54;39.14;98593.41;4486133;31;20469;-71
2022/05/22 09:26:43;;;;;;;2.95;0.95;;;;;;;20.26;38.66;98595.47;4486049;31;20080;-71
2022/05/22 09:29:26;;;;;;;3.25;1.10;;;;;;;20.44;38.73;98601.03;4479850;32;20168;-71
2022/05/22 09:32:45;;;;;;;1.23;1.00;;;;;;;20.59;39.47;98595.50;4485845;31;20100;-71
2022/05/22 09:35:29;;;;;;;2.10;1.17;;;;;;;20.59;38.71;98590.16;4390738;32;20220;-71
2022/05/22 09:38:06;;;;;;;2.72;1.25;;;;;;;20.46;38.49;98587.50;4390932;32;20110;-71
2022/05/22 09:40:44;;;;;;;5.30;1.02;;;;;;;20.18;38.14;98584.03;4390907;32;20107;-71
2022/05/22 09:43:28;;;;;;;3.03;1.23;;;;;;;20.52;39.10;98590.16;4391092;32;20098;-71
2022/05/22 09:46:14;;;;;;;4.55;1.33;;;;;;;20.44;38.51;98597.53;4390871;32;20132;-71
2022/05/22 09:48:53;;;;;;;2.47;1.15;;;;;;;20.54;39.50;98579.31;4390942;32;20102;-71
2022/05/22 09:51:39;;;;;;;3.47;1.45;;;;;;;20.90;39.35;98580.72;4390855;32;20153;-71
2022/05/22 09:54:06;;;;;;;1.25;0.95;;;;;;;20.91;39.22;98588.50;4391022;32;20134;-71
2022/05/22 09:57:19;;;;;;;2.65;0.90;;;;;;;21.11;38.27;98581.50;4390549;32;20121;-71
2022/05/22 09:59:56;;;;;;;4.68;1.27;;;;;;;21.18;37.69;98571.59;4330962;33;20127;-71
2022/05/22 10:02:27;;;;;;;1.80;1.15;;;;;;;20.91;38.14;98571.72;4331266;33;20154;-71
2022/05/22 10:04:58;;;;;;;3.72;1.20;;;;;;;20.73;38.45;98573.16;4331284;33;20128;-71
2022/05/22 10:07:35;;;;;;;6.62;1.27;;;;;;;21.00;38.54;98578.44;4331390;33;20845;-71
2022/05/22 10:10:09;;;;;;;1.67;1.00;;;;;;;20.80;37.79;98569.66;4335052;32;20115;-71
2022/05/22 10:12:54;;;;;;;;;;;;;;;21.28;38.43;98564.78;4396955;32;20130;-71
2022/05/22 10:15:43;;;;;;;3.25;0.90;;;;;;;21.19;36.63;98562.59;4406196;32;19993;-71
2022/05/22 10:18:30;;;;;;;4.70;0.95;;;;;;;20.53;37.71;98559.03;4406256;32;20524;-71
2022/05/22 10:21:04;;;;;;;2.00;1.23;;;;;;;20.19;39.42;98564.38;4405477;32;20173;-71
2022/05/22 10:23:38;;;;;;;3.40;1.10;;;;;;;20.46;39.69;98576.88;4405760;32;20522;-71
2022/05/22 10:26:11;;;;;;;5.20;1.00;;;;;;;20.42;38.20;98554.34;4405813;32;20635;-71
2022/05/22 10:28:59;;;;;;;1.77;1.00;;;;;;;20.24;38.73;98547.78;4405949;32;20452;-71
2022/05/22 10:31:43;;;;;;;1.85;0.95;;;;;;;20.54;37.69;98558.00;4397280;32;20133;-71
2022/05/22 10:34:30;;;;;;;1.33;0.80;;;;;;;20.51;38.23;98553.09;4378232;32;20103;-71
2022/05/22 10:37:03;;;;;;;3.17;0.90;;;;;;;20.31;37.79;98529.19;4433284;32;20706;-71
2022/05/22 10:39:30;;;;;;;7.18;1.23;;;;;;;20.31;38.48;98545.97;4469841;32;20093;-71
2022/05/22 10:44:58;;;;;;;3.92;1.48;;;;;;;20.28;38.44;98546.38;4468853;32;20100;-71
2022/05/22 10:47:30;;;;;;;1.50;0.80;;;;;;;20.59;38.56;98539.59;4469835;32;20529;-71
2022/05/22 10:49:59;;;;;;;2.05;1.08;;;;;;;20.66;39.30;98531.63;4469659;32;20112;-71
2022/05/22 10:52:33;;;;;;;2.87;1.17;;;;;;;20.84;39.12;98533.62;4469589;32;20096;-71
2022/05/22 10:55:01;;;;;;;;;;;;;;;20.71;39.48;98535.31;4470013;32;20162;-71
2022/05/22 10:57:32;;;;;;;0.80;0.70;;;;;;;20.83;37.97;98545.28;4469493;32;20356;-71
2022/05/22 11:00:13;;;;;;;2.67;1.12;;;;;;;20.68;38.33;98545.53;4469745;32;20097;-71
2022/05/22 11:02:41;;;;;;;2.08;0.90;;;;;;;20.73;38.51;98556.38;4469499;32;20131;-71
2022/05/22 11:05:17;;;;;;;4.75;1.00;;;;;;;20.50;38.52;98557.62;4469775;32;20089;-71
2022/05/22 11:07:48;;;;;;;3.12;1.23;;;;;;;20.45;39.05;98552.09;4469712;32;20111;-71
2022/05/22 11:10:25;;;;;;;2.58;1.02;;;;;;;20.67;38.37;98558.03;4469678;32;20114;-71
2022/05/22 11:13:03;;;;;;;3.83;1.00;;;;;;;20.78;38.25;98550.44;4469724;32;20525;-71
2022/05/22 11:15:33;;;;;;;3.85;1.00;;;;;;;20.83;36.91;98553.28;4469610;32;20155;-71
2022/05/22 11:18:09;;;;;;;3.15;0.98;;;;;;;20.93;37.10;98548.34;4469618;32;20127;-71
2022/05/22 11:20:45;;;;;;;7.50;0.90;;;;;;;20.96;37.06;98536.47;4469558;32;20115;-71
2022/05/22 11:23:44;;;;;;;7.78;0.90;;;;;;;20.86;36.54;98524.41;4468140;32;20127;-71
2022/05/22 11:26:25;;;;;;;2.92;1.10;;;;;;;20.90;36.45;98538.91;4469701;32;20088;-71
2022/05/22 11:29:31;;;;;;;4.82;1.17;;;;;;;20.50;37.82;98530.16;4469499;32;20131;-71
2022/05/22 11:32:15;;;;;;;3.08;1.40;;;;;;;20.85;38.43;98548.59;4481528;32;20096;-71
2022/05/22 11:35:07;;;;;;;1.65;1.12;;;;;;;20.79;39.29;98528.94;4484838;32;20486;-71
2022/05/22 11:38:17;;;;;;;3.70;1.10;;;;;;;20.76;38.12;98518.69;4485036;31;20242;-71
2022/05/22 11:40:48;;;;;;;2.45;1.20;;;;;;;21.00;37.87;98527.00;4420444;32;20094;-71
2022/05/22 11:43:32;;;;;;;3.08;0.93;;;;;;;20.78;38.17;98521.16;4420502;32;20483;-71
2022/05/22 11:45:59;;;;;;;1.52;0.90;;;;;;;20.92;39.07;98518.25;4420468;32;20180;-71
2022/05/22 11:48:53;;;;;;;2.05;1.12;;;;;;;21.18;38.71;98516.50;4420504;32;20093;-71
2022/05/22 11:51:36;;;;;;;1.20;0.95;;;;;;;21.13;38.03;98510.97;4420503;32;20312;-71
2022/05/22 11:54:24;;;;;;;3.90;1.10;;;;;;;20.65;38.27;98520.16;4420379;32;20116;-71
2022/05/22 11:57:06;;;;;;;9.23;1.30;;;;;;;20.77;39.36;98504.34;4420215;32;20089;-71
2022/05/22 11:59:46;;;;;;;3.65;1.23;;;;;;;21.03;38.21;98494.63;4417448;32;82088;-71
2022/05/22 12:02:37;;;;;;;5.10;1.30;;;;;;;21.18;37.27;98502.34;4420294;32;20121;-71
2022/05/22 12:05:19;;;;;;;2.65;1.15;;;;;;;21.14;38.20;98493.97;4420265;32;20178;-71
2022/05/22 12:07:49;;;;;;;1.85;1.45;;;;;;;20.87;38.10;98490.59;4420271;32;20111;-71
2022/05/22 12:10:31;;;;;;;4.22;1.30;;;;;;;21.02;38.28;98477.84;4420662;32;20153;-71
2022/05/22 12:13:50;;;;;;;2.92;1.10;;;;;;;20.96;38.99;98484.00;4420260;32;20124;-71
2022/05/22 12:16:28;;;;;;;2.17;0.90;;;;;;;21.25;38.26;98482.63;4374632;32;20193;-71